sensor_id;sensor_type;location;lat;lon;timestamp;P1;durP1;ratioP1;P2;durP2;ratioP2
35634;SDS011;21757;43.610;1.440;2023-05-24T00:00:32;5.53;;;3.55;;
35634;SDS011;21757;43.610;1.440;2023-05-24T00:02:58;5.18;;;3.45;;
35634;SDS011;21757;43.610;1.440;2023-05-24T00:05:24;5.43;;;3.60;;
35634;SDS011;21757;43.610;1.440;2023-05-24T00:07:49;4.68;;;3.67;;
35634;SDS011;21757;43.610;1.440;2023-05-24T00:10:15;4.50;;;3.80;;
35634;SDS011;21757;43.610;1.440;2023-05-24T00:12:41;4.30;;;3.75;;
35634;SDS011;21757;43.610;1.440;2023-05-24T00:15:06;4.53;;;3.97;;
35634;SDS011;21757;43.610;1.440;2023-05-24T00:17:32;5.32;;;3.60;;
35634;SDS011;21757;43.610;1.440;2023-05-24T00:20:05;5.68;;;4.13;;
35634;SDS011;21757;43.610;1.440;2023-05-24T00:22:33;5.15;;;4.00;;
35634;SDS011;21757;43.610;1.440;2023-05-24T00:25:00;5.38;;;4.15;;
35634;SDS011;21757;43.610;1.440;2023-05-24T00:27:26;4.28;;;3.58;;
35634;SDS011;21757;43.610;1.440;2023-05-24T00:29:51;5.30;;;4.13;;
35634;SDS011;21757;43.610;1.440;2023-05-24T00:32:17;5.32;;;3.90;;
35634;SDS011;21757;43.610;1.440;2023-05-24T00:34:44;5.57;;;3.75;;
35634;SDS011;21757;43.610;1.440;2023-05-24T00:37:10;4.97;;;4.10;;
35634;SDS011;21757;43.610;1.440;2023-05-24T00:39:36;6.05;;;4.05;;
35634;SDS011;21757;43.610;1.440;2023-05-24T00:42:02;5.10;;;4.07;;
35634;SDS011;21757;43.610;1.440;2023-05-24T00:44:28;5.97;;;4.05;;
35634;SDS011;21757;43.610;1.440;2023-05-24T00:46:55;5.57;;;4.22;;
35634;SDS011;21757;43.610;1.440;2023-05-24T00:49:21;7.20;;;4.47;;
35634;SDS011;21757;43.610;1.440;2023-05-24T00:51:47;5.40;;;4.50;;
35634;SDS011;21757;43.610;1.440;2023-05-24T00:54:14;6.97;;;4.30;;
35634;SDS011;21757;43.610;1.440;2023-05-24T00:56:40;5.80;;;4.38;;
35634;SDS011;21757;43.610;1.440;2023-05-24T00:59:07;6.32;;;4.65;;
35634;SDS011;21757;43.610;1.440;2023-05-24T01:01:33;5.55;;;4.97;;
35634;SDS011;21757;43.610;1.440;2023-05-24T01:03:59;5.32;;;4.30;;
35634;SDS011;21757;43.610;1.440;2023-05-24T01:06:26;8.25;;;4.93;;
35634;SDS011;21757;43.610;1.440;2023-05-24T01:16:30;5.05;;;4.55;;
35634;SDS011;21757;43.610;1.440;2023-05-24T01:22:05;5.85;;;4.80;;
35634;SDS011;21757;43.610;1.440;2023-05-24T01:27:32;7.93;;;4.90;;
35634;SDS011;21757;43.610;1.440;2023-05-24T01:29:59;5.05;;;4.55;;
35634;SDS011;21757;43.610;1.440;2023-05-24T01:32:26;6.20;;;4.93;;
35634;SDS011;21757;43.610;1.440;2023-05-24T01:34:52;6.38;;;4.70;;
35634;SDS011;21757;43.610;1.440;2023-05-24T01:37:18;7.43;;;4.65;;
35634;SDS011;21757;43.610;1.440;2023-05-24T01:39:44;8.68;;;4.68;;
35634;SDS011;21757;43.610;1.440;2023-05-24T01:42:14;5.68;;;5.07;;
35634;SDS011;21757;43.610;1.440;2023-05-24T01:44:57;6.43;;;4.78;;
35634;SDS011;21757;43.610;1.440;2023-05-24T01:50:25;5.65;;;4.35;;
35634;SDS011;21757;43.610;1.440;2023-05-24T01:52:54;8.18;;;5.28;;
35634;SDS011;21757;43.610;1.440;2023-05-24T01:55:27;6.78;;;4.93;;
35634;SDS011;21757;43.610;1.440;2023-05-24T01:57:57;8.15;;;4.85;;
35634;SDS011;21757;43.610;1.440;2023-05-24T02:00:26;8.07;;;5.13;;
35634;SDS011;21757;43.610;1.440;2023-05-24T02:02:54;5.18;;;4.68;;
35634;SDS011;21757;43.610;1.440;2023-05-24T02:05:21;8.48;;;5.18;;
35634;SDS011;21757;43.610;1.440;2023-05-24T02:07:47;6.78;;;5.07;;
35634;SDS011;21757;43.610;1.440;2023-05-24T02:10:13;6.25;;;5.10;;
35634;SDS011;21757;43.610;1.440;2023-05-24T02:12:38;6.72;;;5.28;;
35634;SDS011;21757;43.610;1.440;2023-05-24T02:15:04;7.10;;;5.60;;
35634;SDS011;21757;43.610;1.440;2023-05-24T02:17:30;9.10;;;5.65;;
35634;SDS011;21757;43.610;1.440;2023-05-24T02:19:57;8.15;;;5.10;;
35634;SDS011;21757;43.610;1.440;2023-05-24T02:22:26;5.40;;;4.90;;
35634;SDS011;21757;43.610;1.440;2023-05-24T02:24:52;6.32;;;5.35;;
35634;SDS011;21757;43.610;1.440;2023-05-24T02:27:18;6.20;;;5.60;;
35634;SDS011;21757;43.610;1.440;2023-05-24T02:29:44;7.55;;;5.30;;
35634;SDS011;21757;43.610;1.440;2023-05-24T02:32:09;6.78;;;6.05;;
35634;SDS011;21757;43.610;1.440;2023-05-24T02:34:35;6.53;;;5.45;;
35634;SDS011;21757;43.610;1.440;2023-05-24T02:37:01;7.85;;;5.90;;
35634;SDS011;21757;43.610;1.440;2023-05-24T02:39:26;7.28;;;5.65;;
35634;SDS011;21757;43.610;1.440;2023-05-24T02:41:52;6.53;;;5.50;;
35634;SDS011;21757;43.610;1.440;2023-05-24T02:44:18;6.70;;;5.80;;
35634;SDS011;21757;43.610;1.440;2023-05-24T02:46:43;8.88;;;5.95;;
35634;SDS011;21757;43.610;1.440;2023-05-24T02:49:09;7.47;;;5.82;;
35634;SDS011;21757;43.610;1.440;2023-05-24T02:51:35;8.77;;;5.75;;
35634;SDS011;21757;43.610;1.440;2023-05-24T02:54:03;8.50;;;6.20;;
35634;SDS011;21757;43.610;1.440;2023-05-24T02:56:29;6.88;;;5.70;;
35634;SDS011;21757;43.610;1.440;2023-05-24T02:58:55;9.65;;;5.75;;
35634;SDS011;21757;43.610;1.440;2023-05-24T03:01:21;9.65;;;6.10;;
35634;SDS011;21757;43.610;1.440;2023-05-24T03:03:47;9.50;;;5.22;;
35634;SDS011;21757;43.610;1.440;2023-05-24T03:06:13;6.25;;;5.30;;
35634;SDS011;21757;43.610;1.440;2023-05-24T03:08:39;7.32;;;5.93;;
35634;SDS011;21757;43.610;1.440;2023-05-24T03:11:05;7.40;;;5.15;;
35634;SDS011;21757;43.610;1.440;2023-05-24T03:13:31;6.90;;;5.78;;
35634;SDS011;21757;43.610;1.440;2023-05-24T03:15:57;9.07;;;5.63;;
35634;SDS011;21757;43.610;1.440;2023-05-24T03:18:22;8.25;;;5.05;;
35634;SDS011;21757;43.610;1.440;2023-05-24T03:20:48;6.13;;;5.53;;
35634;SDS011;21757;43.610;1.440;2023-05-24T03:23:15;10.00;;;5.93;;
35634;SDS011;21757;43.610;1.440;2023-05-24T03:25:40;7.00;;;5.43;;
35634;SDS011;21757;43.610;1.440;2023-05-24T03:28:06;8.85;;;5.75;;
35634;SDS011;21757;43.610;1.440;2023-05-24T03:30:32;7.95;;;5.50;;
35634;SDS011;21757;43.610;1.440;2023-05-24T03:32:58;7.75;;;5.47;;
35634;SDS011;21757;43.610;1.440;2023-05-24T03:35:24;14.35;;;5.95;;
35634;SDS011;21757;43.610;1.440;2023-05-24T03:37:50;8.50;;;6.22;;
35634;SDS011;21757;43.610;1.440;2023-05-24T03:40:17;19.05;;;6.57;;
35634;SDS011;21757;43.610;1.440;2023-05-24T03:42:43;36.45;;;9.13;;
35634;SDS011;21757;43.610;1.440;2023-05-24T03:45:08;6.90;;;6.20;;
35634;SDS011;21757;43.610;1.440;2023-05-24T03:47:34;10.48;;;6.20;;
35634;SDS011;21757;43.610;1.440;2023-05-24T03:50:00;7.72;;;5.95;;
35634;SDS011;21757;43.610;1.440;2023-05-24T03:52:26;8.85;;;5.82;;
35634;SDS011;21757;43.610;1.440;2023-05-24T03:54:51;11.27;;;6.18;;
35634;SDS011;21757;43.610;1.440;2023-05-24T03:57:17;8.23;;;6.22;;
35634;SDS011;21757;43.610;1.440;2023-05-24T03:59:43;9.02;;;5.78;;
35634;SDS011;21757;43.610;1.440;2023-05-24T04:02:08;7.53;;;5.72;;
35634;SDS011;21757;43.610;1.440;2023-05-24T04:04:34;7.43;;;5.65;;
35634;SDS011;21757;43.610;1.440;2023-05-24T04:07:01;7.40;;;5.85;;
35634;SDS011;21757;43.610;1.440;2023-05-24T04:09:27;7.32;;;6.15;;
35634;SDS011;21757;43.610;1.440;2023-05-24T04:11:53;9.50;;;6.20;;
35634;SDS011;21757;43.610;1.440;2023-05-24T04:14:18;6.30;;;5.40;;
35634;SDS011;21757;43.610;1.440;2023-05-24T04:16:44;8.23;;;6.40;;
35634;SDS011;21757;43.610;1.440;2023-05-24T04:19:10;8.73;;;6.38;;
35634;SDS011;21757;43.610;1.440;2023-05-24T04:21:36;8.60;;;6.68;;
35634;SDS011;21757;43.610;1.440;2023-05-24T04:24:02;7.40;;;6.05;;
35634;SDS011;21757;43.610;1.440;2023-05-24T04:26:31;7.75;;;6.35;;
35634;SDS011;21757;43.610;1.440;2023-05-24T04:28:58;8.38;;;5.68;;
35634;SDS011;21757;43.610;1.440;2023-05-24T04:31:24;8.10;;;6.63;;
35634;SDS011;21757;43.610;1.440;2023-05-24T04:33:50;7.70;;;6.13;;
35634;SDS011;21757;43.610;1.440;2023-05-24T04:36:16;9.05;;;6.25;;
35634;SDS011;21757;43.610;1.440;2023-05-24T04:38:42;7.35;;;6.25;;
35634;SDS011;21757;43.610;1.440;2023-05-24T04:41:09;7.82;;;6.63;;
35634;SDS011;21757;43.610;1.440;2023-05-24T04:43:36;8.20;;;6.32;;
35634;SDS011;21757;43.610;1.440;2023-05-24T04:46:02;6.85;;;6.15;;
35634;SDS011;21757;43.610;1.440;2023-05-24T04:48:28;9.32;;;6.20;;
35634;SDS011;21757;43.610;1.440;2023-05-24T04:50:55;7.53;;;6.25;;
35634;SDS011;21757;43.610;1.440;2023-05-24T04:53:22;8.98;;;6.55;;
35634;SDS011;21757;43.610;1.440;2023-05-24T04:55:48;9.32;;;6.60;;
35634;SDS011;21757;43.610;1.440;2023-05-24T04:58:15;8.88;;;6.63;;
35634;SDS011;21757;43.610;1.440;2023-05-24T05:00:41;7.38;;;6.68;;
35634;SDS011;21757;43.610;1.440;2023-05-24T05:03:07;9.10;;;6.70;;
35634;SDS011;21757;43.610;1.440;2023-05-24T05:05:33;10.50;;;7.00;;
35634;SDS011;21757;43.610;1.440;2023-05-24T05:07:59;8.45;;;6.88;;
35634;SDS011;21757;43.610;1.440;2023-05-24T05:10:25;11.82;;;7.40;;
35634;SDS011;21757;43.610;1.440;2023-05-24T05:12:52;8.75;;;6.68;;
35634;SDS011;21757;43.610;1.440;2023-05-24T05:15:19;8.30;;;6.32;;
35634;SDS011;21757;43.610;1.440;2023-05-24T05:17:46;8.00;;;7.10;;
35634;SDS011;21757;43.610;1.440;2023-05-24T05:20:12;10.35;;;7.03;;
35634;SDS011;21757;43.610;1.440;2023-05-24T05:22:37;7.80;;;6.82;;
35634;SDS011;21757;43.610;1.440;2023-05-24T05:25:03;9.40;;;7.57;;
35634;SDS011;21757;43.610;1.440;2023-05-24T05:27:29;8.80;;;7.43;;
35634;SDS011;21757;43.610;1.440;2023-05-24T05:29:55;10.60;;;7.20;;
35634;SDS011;21757;43.610;1.440;2023-05-24T05:32:21;8.85;;;7.95;;
35634;SDS011;21757;43.610;1.440;2023-05-24T05:34:46;11.07;;;8.45;;
35634;SDS011;21757;43.610;1.440;2023-05-24T05:37:12;12.43;;;9.20;;
35634;SDS011;21757;43.610;1.440;2023-05-24T05:39:38;11.73;;;8.77;;
35634;SDS011;21757;43.610;1.440;2023-05-24T05:42:03;10.80;;;9.27;;
35634;SDS011;21757;43.610;1.440;2023-05-24T05:44:29;12.05;;;9.10;;
35634;SDS011;21757;43.610;1.440;2023-05-24T05:46:55;14.80;;;9.48;;
35634;SDS011;21757;43.610;1.440;2023-05-24T05:49:21;11.07;;;8.77;;
35634;SDS011;21757;43.610;1.440;2023-05-24T05:51:47;12.30;;;9.70;;
35634;SDS011;21757;43.610;1.440;2023-05-24T05:54:12;12.48;;;9.77;;
35634;SDS011;21757;43.610;1.440;2023-05-24T05:56:39;10.93;;;9.57;;
35634;SDS011;21757;43.610;1.440;2023-05-24T05:59:13;12.00;;;9.50;;
35634;SDS011;21757;43.610;1.440;2023-05-24T06:01:39;10.93;;;8.70;;
35634;SDS011;21757;43.610;1.440;2023-05-24T06:04:05;14.18;;;8.88;;
35634;SDS011;21757;43.610;1.440;2023-05-24T06:06:31;12.55;;;9.02;;
35634;SDS011;21757;43.610;1.440;2023-05-24T06:08:57;12.15;;;9.18;;
35634;SDS011;21757;43.610;1.440;2023-05-24T06:11:24;12.43;;;9.35;;
35634;SDS011;21757;43.610;1.440;2023-05-24T06:13:51;11.00;;;9.27;;
35634;SDS011;21757;43.610;1.440;2023-05-24T06:16:17;12.00;;;9.40;;
35634;SDS011;21757;43.610;1.440;2023-05-24T06:18:43;14.13;;;9.43;;
35634;SDS011;21757;43.610;1.440;2023-05-24T06:21:09;11.95;;;9.60;;
35634;SDS011;21757;43.610;1.440;2023-05-24T06:23:35;14.45;;;9.95;;
35634;SDS011;21757;43.610;1.440;2023-05-24T06:26:02;11.63;;;9.38;;
35634;SDS011;21757;43.610;1.440;2023-05-24T06:28:28;12.32;;;9.27;;
35634;SDS011;21757;43.610;1.440;2023-05-24T06:30:54;12.02;;;9.55;;
35634;SDS011;21757;43.610;1.440;2023-05-24T06:33:19;12.13;;;9.23;;
35634;SDS011;21757;43.610;1.440;2023-05-24T06:35:46;11.20;;;9.23;;
35634;SDS011;21757;43.610;1.440;2023-05-24T06:38:12;16.60;;;10.00;;
35634;SDS011;21757;43.610;1.440;2023-05-24T06:40:38;11.40;;;9.05;;
35634;SDS011;21757;43.610;1.440;2023-05-24T06:43:04;14.45;;;11.68;;
35634;SDS011;21757;43.610;1.440;2023-05-24T06:45:30;13.95;;;9.52;;
35634;SDS011;21757;43.610;1.440;2023-05-24T06:47:57;15.15;;;10.93;;
35634;SDS011;21757;43.610;1.440;2023-05-24T06:50:22;12.55;;;9.50;;
35634;SDS011;21757;43.610;1.440;2023-05-24T06:52:49;12.93;;;9.20;;
35634;SDS011;21757;43.610;1.440;2023-05-24T06:55:14;13.75;;;9.85;;
35634;SDS011;21757;43.610;1.440;2023-05-24T06:57:40;14.68;;;9.07;;
35634;SDS011;21757;43.610;1.440;2023-05-24T07:00:06;13.13;;;10.10;;
35634;SDS011;21757;43.610;1.440;2023-05-24T07:02:36;14.70;;;8.95;;
35634;SDS011;21757;43.610;1.440;2023-05-24T07:05:05;12.48;;;9.88;;
35634;SDS011;21757;43.610;1.440;2023-05-24T07:07:36;12.70;;;10.25;;
35634;SDS011;21757;43.610;1.440;2023-05-24T07:10:06;16.30;;;9.98;;
35634;SDS011;21757;43.610;1.440;2023-05-24T07:12:34;13.20;;;10.02;;
35634;SDS011;21757;43.610;1.440;2023-05-24T07:15:00;13.30;;;10.55;;
35634;SDS011;21757;43.610;1.440;2023-05-24T07:17:26;14.20;;;10.48;;
35634;SDS011;21757;43.610;1.440;2023-05-24T07:19:52;15.52;;;10.50;;
35634;SDS011;21757;43.610;1.440;2023-05-24T07:22:17;14.27;;;10.50;;
35634;SDS011;21757;43.610;1.440;2023-05-24T07:24:43;12.57;;;10.82;;
35634;SDS011;21757;43.610;1.440;2023-05-24T07:27:09;13.63;;;10.52;;
35634;SDS011;21757;43.610;1.440;2023-05-24T07:29:34;14.85;;;10.13;;
35634;SDS011;21757;43.610;1.440;2023-05-24T07:32:00;13.40;;;10.00;;
35634;SDS011;21757;43.610;1.440;2023-05-24T07:34:26;13.05;;;10.05;;
35634;SDS011;21757;43.610;1.440;2023-05-24T07:36:54;11.65;;;9.85;;
35634;SDS011;21757;43.610;1.440;2023-05-24T07:39:21;11.35;;;9.15;;
35634;SDS011;21757;43.610;1.440;2023-05-24T07:41:49;12.65;;;9.98;;
35634;SDS011;21757;43.610;1.440;2023-05-24T07:44:15;9.73;;;8.73;;
35634;SDS011;21757;43.610;1.440;2023-05-24T07:46:40;11.82;;;9.05;;
35634;SDS011;21757;43.610;1.440;2023-05-24T07:49:06;11.45;;;8.30;;
35634;SDS011;21757;43.610;1.440;2023-05-24T07:51:32;10.10;;;9.00;;
35634;SDS011;21757;43.610;1.440;2023-05-24T07:53:58;13.63;;;8.90;;
35634;SDS011;21757;43.610;1.440;2023-05-24T07:56:24;11.00;;;8.88;;
35634;SDS011;21757;43.610;1.440;2023-05-24T07:58:50;10.02;;;9.00;;
35634;SDS011;21757;43.610;1.440;2023-05-24T08:01:16;12.23;;;8.55;;
35634;SDS011;21757;43.610;1.440;2023-05-24T08:03:44;9.93;;;8.85;;
35634;SDS011;21757;43.610;1.440;2023-05-24T08:06:10;11.00;;;8.73;;
35634;SDS011;21757;43.610;1.440;2023-05-24T08:08:37;15.15;;;9.43;;
35634;SDS011;21757;43.610;1.440;2023-05-24T08:11:05;10.65;;;9.20;;
35634;SDS011;21757;43.610;1.440;2023-05-24T08:13:32;12.85;;;9.00;;
35634;SDS011;21757;43.610;1.440;2023-05-24T08:15:58;9.27;;;8.27;;
35634;SDS011;21757;43.610;1.440;2023-05-24T08:18:24;13.27;;;9.13;;
35634;SDS011;21757;43.610;1.440;2023-05-24T08:20:50;11.50;;;8.70;;
